Погода Ружанына неделю

Лодзинское воеводство, Польша

24 - 30 мая
  • 24мая
    Сегодня
    +13°
    +26°
    Практически безоблачно
    ВремяПогодаТемператураВлажностьДавлениеВетер, м/сВероятность осадков
    02:00Пасмурно, ливень+15°C93 %752 мм0.8 м/с47 %
    05:00Небольшая облачность+14°C97 %752 мм1.2 м/с34 %
    08:00Небольшая облачность+17°C88 %753 мм1.2 м/с5 %
    11:00Облачно с прояснениями+22°C65 %753 мм2.8 м/с14 %
    14:00Практически безоблачно+25°C53 %752 мм3.2 м/с18 %
    17:00Практически безоблачно+25°C46 %751 мм3.9 м/с9 %
    20:00Ясно и безоблачно+21°C83 %752 мм0.4 м/с28 %
    23:00Ясно и безоблачно+16°C93 %752 мм1.9 м/с4 %
  • 25мая
    Суббота
    +13°
    +25°
    Небольшая облачность
    ВремяПогодаТемператураВлажностьДавлениеВетер, м/сВероятность осадков
    02:00Ясно и безоблачно+14°C93 %752 мм2.2 м/с2 %
    05:00Практически безоблачно+14°C91 %752 мм2.7 м/с2 %
    08:00Ясно и безоблачно+19°C77 %752 мм2.1 м/с2 %
    11:00Практически безоблачно+23°C58 %753 мм1.9 м/с2 %
    14:00Небольшая облачность+25°C49 %752 мм2.2 м/с14 %
    17:00Небольшая облачность, возможен дождь с грозой+24°C50 %752 мм2.4 м/с43 %
    20:00Пасмурно, дождь+19°C83 %752 мм1.4 м/с59 %
    23:00Ясно и безоблачно+16°C95 %752 мм1.5 м/с16 %
  • 26мая
    Воскресенье
    +12°
    +26°
    Практически безоблачно
    ВремяПогодаТемператураВлажностьДавлениеВетер, м/сВероятность осадков
    02:00Ясно и безоблачно+14°C95 %752 мм1.7 м/с1 %
    05:00Практически безоблачно+13°C95 %752 мм1.8 м/с2 %
    08:00Ясно и безоблачно+19°C84 %753 мм1.0 м/с2 %
    11:00Ясно и безоблачно+24°C59 %753 мм1.1 м/с11 %
    14:00Практически безоблачно+26°C43 %753 мм2.2 м/с16 %
    17:00Небольшая облачность, возможен дождь с грозой+23°C46 %752 мм4.7 м/с36 %
    20:00Практически безоблачно+21°C74 %753 мм1.7 м/с22 %
    23:00Ясно и безоблачно+14°C85 %753 мм1.8 м/с4 %
  • 27мая
    Понедельник
    +12°
    +27°
    Ясно и безоблачно
    ВремяПогодаТемператураВлажностьДавлениеВетер, м/сВероятность осадков
    02:00Небольшая облачность+14°C92 %753 мм1.7 м/с2 %
    05:00Небольшая облачность+13°C93 %753 мм2.0 м/с2 %
    08:00Ясно и безоблачно+20°C67 %753 мм2.0 м/с2 %
    11:00Ясно и безоблачно+24°C36 %753 мм3.7 м/с15 %
    14:00Ясно и безоблачно+26°C28 %752 мм4.3 м/с23 %
    17:00Практически безоблачно+26°C28 %751 мм4.3 м/с19 %
    20:00Ясно и безоблачно+23°C39 %752 мм2.9 м/с10 %
    23:00Ясно и безоблачно+18°C42 %752 мм4.2 м/с2 %
  • 28мая
    Вторник
    +12°
    +26°
    Небольшая облачность
    ВремяПогодаТемператураВлажностьДавлениеВетер, м/сВероятность осадков
    02:00Ясно и безоблачно+15°C53 %752 мм3.2 м/с2 %
    05:00Ясно и безоблачно+13°C64 %751 мм2.7 м/с2 %
    08:00Ясно и безоблачно+19°C54 %751 мм2.6 м/с2 %
    11:00Практически безоблачно+24°C31 %752 мм4.0 м/с2 %
    14:00Небольшая облачность+25°C25 %751 мм4.7 м/с2 %
    17:00Небольшая облачность+25°C28 %750 мм4.8 м/с2 %
    20:00Небольшая облачность+22°C43 %750 мм2.0 м/с2 %
    23:00Облачно с прояснениями+16°C50 %750 мм2.0 м/с2 %
Мы используем cookies
Соглашаюсь